createdAt,value
2018-12-27T00:02:54.904Z,14.10
2018-12-27T00:07:46.596Z,14.13
2018-12-27T00:12:42.234Z,16.17
2018-12-27T00:17:37.722Z,12.60
2018-12-27T00:22:33.273Z,16.80
2018-12-27T00:27:28.821Z,15.97
2018-12-27T00:32:24.898Z,15.70
2018-12-27T00:37:21.041Z,18.63
2018-12-27T00:42:17.036Z,15.53
2018-12-27T00:47:13.029Z,12.97
2018-12-27T00:52:09.037Z,14.77
2018-12-27T00:57:05.036Z,15.30
2018-12-27T01:02:01.025Z,16.23
2018-12-27T01:06:57.067Z,15.43
2018-12-27T01:11:53.086Z,14.13
2018-12-27T01:16:49.085Z,16.50
2018-12-27T01:21:45.380Z,15.37
2018-12-27T01:26:41.430Z,13.67
2018-12-27T01:31:37.458Z,17.47
2018-12-27T01:36:33.523Z,14.43
2018-12-27T01:41:29.835Z,13.93
2018-12-27T01:46:25.982Z,12.67
2018-12-27T01:51:22.034Z,12.53
2018-12-27T01:56:18.064Z,12.17
2018-12-27T02:01:14.192Z,12.30
2018-12-27T02:06:10.166Z,12.90
2018-12-27T02:11:06.318Z,12.83
2018-12-27T02:16:02.389Z,16.17
2018-12-27T02:20:58.336Z,13.37
2018-12-27T02:25:54.328Z,12.60
2018-12-27T02:30:50.591Z,11.80
2018-12-27T02:35:46.647Z,13.13
2018-12-27T02:40:42.742Z,13.50
2018-12-27T02:45:38.720Z,13.67
2018-12-27T02:50:34.715Z,11.67
2018-12-27T02:55:30.934Z,14.53
2018-12-27T03:00:26.976Z,15.00
2018-12-27T03:05:23.040Z,14.00
2018-12-27T03:10:19.018Z,12.80
2018-12-27T03:15:14.977Z,14.97
2018-12-27T03:20:11.001Z,15.57
2018-12-27T03:25:07.024Z,13.53
2018-12-27T03:30:03.024Z,14.60
2018-12-27T03:34:59.010Z,13.30
2018-12-27T03:39:54.972Z,15.50
2018-12-27T03:44:50.985Z,11.70
2018-12-27T03:49:46.970Z,15.50
2018-12-27T03:54:42.961Z,15.67
2018-12-27T03:59:38.933Z,15.23
2018-12-27T04:04:34.903Z,12.07
2018-12-27T04:09:30.876Z,15.10
2018-12-27T04:14:26.890Z,16.13
2018-12-27T04:19:22.378Z,13.63
2018-12-27T04:24:19.581Z,14.17
2018-12-27T04:29:15.163Z,15.30
2018-12-27T04:34:10.671Z,14.00
2018-12-27T04:39:08.202Z,15.20
2018-12-27T04:44:03.696Z,15.43
2018-12-27T04:48:59.171Z,13.70
2018-12-27T04:53:54.679Z,13.53
2018-12-27T04:58:50.161Z,14.63
2018-12-27T05:03:45.764Z,13.23
2018-12-27T05:08:41.311Z,13.07
2018-12-27T05:13:36.795Z,12.77
2018-12-27T05:18:32.289Z,13.93
2018-12-27T05:23:27.757Z,15.23
2018-12-27T05:28:23.245Z,15.17
2018-12-27T05:33:18.751Z,13.70
2018-12-27T05:38:14.236Z,17.50
2018-12-27T05:43:09.721Z,13.27
2018-12-27T05:48:05.219Z,12.20
2018-12-27T05:53:00.715Z,13.33
2018-12-27T05:57:56.158Z,12.73
2018-12-27T06:02:51.646Z,14.63
2018-12-27T06:07:47.111Z,13.97
2018-12-27T06:12:42.655Z,14.33
2018-12-27T06:17:38.139Z,16.20
2018-12-27T06:22:33.584Z,15.17
2018-12-27T06:27:29.045Z,14.43
2018-12-27T06:32:24.582Z,13.07
2018-12-27T06:37:20.076Z,13.43
2018-12-27T06:42:15.571Z,15.13
2018-12-27T06:47:11.069Z,14.63
2018-12-27T06:52:07.758Z,14.17
2018-12-27T06:57:03.321Z,16.67
2018-12-27T07:01:58.779Z,13.60
2018-12-27T07:06:54.284Z,16.17
2018-12-27T07:11:49.802Z,13.67
2018-12-27T07:16:45.382Z,13.27
2018-12-27T07:21:40.898Z,14.17
2018-12-27T07:26:36.675Z,14.93
2018-12-27T07:31:32.326Z,13.17
2018-12-27T07:36:28.092Z,14.83
2018-12-27T07:41:23.739Z,14.37
2018-12-27T07:46:19.351Z,12.07
2018-12-27T07:51:14.918Z,16.90
2018-12-27T07:56:10.496Z,12.80
2018-12-27T08:01:05.971Z,11.23
2018-12-27T08:06:01.528Z,12.83
2018-12-27T08:10:57.159Z,12.73
2018-12-27T08:15:52.769Z,12.40
2018-12-27T08:20:48.254Z,12.87
2018-12-27T08:25:43.796Z,13.30
2018-12-27T08:30:39.283Z,11.03
2018-12-27T08:35:35.053Z,11.57
2018-12-27T08:40:30.577Z,11.13
2018-12-27T08:45:26.070Z,10.20
2018-12-27T08:50:21.561Z,11.00
2018-12-27T08:55:17.006Z,13.50
2018-12-27T09:00:12.495Z,11.10
2018-12-27T09:05:08.613Z,11.20
2018-12-27T09:10:05.883Z,10.67
2018-12-27T09:15:01.339Z,9.43
2018-12-27T09:19:56.818Z,11.47
2018-12-27T09:24:52.276Z,11.87
2018-12-27T09:29:47.748Z,12.20
2018-12-27T09:34:43.259Z,9.90
2018-12-27T09:39:38.817Z,10.33
2018-12-27T09:44:34.282Z,12.20
2018-12-27T09:49:29.809Z,10.50
2018-12-27T09:54:25.328Z,9.30
2018-12-27T09:59:20.798Z,12.00
2018-12-27T10:04:16.272Z,11.43
2018-12-27T10:09:11.740Z,11.37
2018-12-27T10:14:07.225Z,11.73
2018-12-27T10:19:02.761Z,12.13
2018-12-27T10:23:58.220Z,11.50
2018-12-27T10:28:53.690Z,10.73
2018-12-27T10:33:49.258Z,12.20
2018-12-27T10:38:44.732Z,12.63
2018-12-27T10:43:40.220Z,15.13
2018-12-27T10:48:35.683Z,12.47
2018-12-27T10:53:31.312Z,12.50
2018-12-27T10:58:26.781Z,11.80
2018-12-27T11:03:22.352Z,11.90
2018-12-27T11:08:17.812Z,10.83
2018-12-27T11:13:13.293Z,13.37
2018-12-27T11:18:08.801Z,11.37
2018-12-27T11:23:04.268Z,11.87
2018-12-27T11:27:59.769Z,11.37
2018-12-27T11:32:55.333Z,14.27
2018-12-27T11:37:50.859Z,10.93
2018-12-27T11:42:46.342Z,11.10
2018-12-27T11:47:41.888Z,12.27
2018-12-27T11:52:37.353Z,11.23
2018-12-27T11:57:32.828Z,12.20
2018-12-27T12:02:31.217Z,13.83
2018-12-27T12:07:25.628Z,12.10
2018-12-27T12:12:21.114Z,11.90
2018-12-27T12:17:16.700Z,11.70
2018-12-27T12:22:12.199Z,10.13
2018-12-27T12:27:07.711Z,11.33
2018-12-27T12:32:03.274Z,11.33
2018-12-27T12:36:58.853Z,13.03
2018-12-27T12:41:54.343Z,10.33
2018-12-27T12:46:49.799Z,10.53
2018-12-27T12:51:45.354Z,11.77
2018-12-27T12:56:40.828Z,11.17
2018-12-27T13:01:36.314Z,11.13
2018-12-27T13:06:31.781Z,13.20
2018-12-27T13:11:27.248Z,11.97
2018-12-27T13:16:22.716Z,9.73
2018-12-27T13:21:18.229Z,9.93
2018-12-27T13:26:13.700Z,12.03
2018-12-27T13:31:09.175Z,9.97
2018-12-27T13:36:04.689Z,10.27
2018-12-27T13:41:00.733Z,12.00
2018-12-27T13:45:56.319Z,11.90
2018-12-27T13:50:53.582Z,12.83
2018-12-27T13:55:49.081Z,10.97
2018-12-27T14:00:44.525Z,9.80
2018-12-27T14:05:39.995Z,12.33
2018-12-27T14:10:35.529Z,9.80
2018-12-27T14:15:30.976Z,10.50
2018-12-27T14:20:26.419Z,10.40
2018-12-27T14:25:21.889Z,11.83
2018-12-27T14:30:17.408Z,9.97
2018-12-27T14:35:12.910Z,10.23
2018-12-27T14:40:10.069Z,9.60
2018-12-27T14:45:08.616Z,15.13
2018-12-27T14:50:05.427Z,10.77
2018-12-27T14:55:00.888Z,10.97
2018-12-27T14:59:56.358Z,11.00
2018-12-27T15:04:51.817Z,10.47
2018-12-27T15:09:47.304Z,10.67
2018-12-27T15:14:42.787Z,12.70
2018-12-27T15:19:38.273Z,10.13
2018-12-27T15:24:33.744Z,11.00
2018-12-27T15:29:29.245Z,13.13
2018-12-27T15:34:24.731Z,9.40
2018-12-27T15:39:20.223Z,9.90
2018-12-27T15:44:15.710Z,10.00
2018-12-27T15:49:11.186Z,13.70
2018-12-27T15:54:06.762Z,12.70
2018-12-27T15:59:02.238Z,14.33
2018-12-27T16:03:57.695Z,14.10
2018-12-27T16:08:53.155Z,15.90
2018-12-27T16:13:48.666Z,13.90
2018-12-27T16:18:44.135Z,17.27
2018-12-27T16:23:39.629Z,12.20
2018-12-27T16:28:35.223Z,19.00
2018-12-27T16:33:30.727Z,16.17
2018-12-27T16:38:26.220Z,13.87
2018-12-27T16:43:21.701Z,14.83
2018-12-27T16:48:17.197Z,15.43
2018-12-27T16:53:12.651Z,15.40
2018-12-27T16:58:08.168Z,15.93
2018-12-27T17:03:03.717Z,17.53
2018-12-27T17:07:59.188Z,18.97
2018-12-27T17:12:54.674Z,14.53
2018-12-27T17:17:50.144Z,20.07
2018-12-27T17:22:45.807Z,20.07
2018-12-27T17:27:41.306Z,15.10
2018-12-27T17:32:37.978Z,15.87
2018-12-27T17:37:33.537Z,20.83
2018-12-27T17:42:28.999Z,19.43
2018-12-27T17:47:24.500Z,15.80
2018-12-27T17:52:19.962Z,16.10
2018-12-27T17:57:15.687Z,19.27
2018-12-27T18:02:12.114Z,19.93
2018-12-27T18:07:09.133Z,16.47
2018-12-27T18:12:06.208Z,15.23
2018-12-27T18:17:02.335Z,16.43
2018-12-27T18:21:58.267Z,14.67
2018-12-27T18:26:54.688Z,19.00
2018-12-27T18:31:51.490Z,14.27
2018-12-27T18:36:48.298Z,20.13
2018-12-27T18:41:43.763Z,16.47
2018-12-27T18:46:39.903Z,16.53
2018-12-27T18:51:35.757Z,18.13
2018-12-27T18:56:31.326Z,18.03
2018-12-27T19:01:28.319Z,18.93
2018-12-27T19:06:24.632Z,17.70
2018-12-27T19:12:13.505Z,20.27
2018-12-27T19:17:19.332Z,18.33
2018-12-27T19:22:30.805Z,20.27
2018-12-27T19:27:26.269Z,17.80
2018-12-27T19:32:21.850Z,17.93
2018-12-27T19:37:17.329Z,18.63
2018-12-27T19:42:12.813Z,19.67
2018-12-27T19:47:08.326Z,19.17
2018-12-27T19:52:03.788Z,17.27
2018-12-27T19:56:59.271Z,18.17
2018-12-27T20:01:54.924Z,18.53
2018-12-27T20:06:50.426Z,19.57
2018-12-27T20:11:45.885Z,17.87
2018-12-27T20:16:41.469Z,16.70
2018-12-27T20:21:36.948Z,17.90
2018-12-27T20:26:32.442Z,18.77
2018-12-27T20:31:27.980Z,17.93
2018-12-27T20:36:23.584Z,20.57
2018-12-27T20:41:19.081Z,19.13
2018-12-27T20:46:14.565Z,19.70
2018-12-27T20:51:10.078Z,21.83
2018-12-27T20:56:05.548Z,15.90
2018-12-27T21:01:01.017Z,18.13
2018-12-27T21:05:56.491Z,18.93
2018-12-27T21:10:51.999Z,20.23
2018-12-27T21:15:47.560Z,17.80
2018-12-27T21:20:43.047Z,18.07
2018-12-27T21:25:38.642Z,18.27
2018-12-27T21:30:34.118Z,16.83
2018-12-27T21:35:29.639Z,18.43
2018-12-27T21:40:25.134Z,21.77
2018-12-27T21:45:20.729Z,19.23
2018-12-27T21:50:16.203Z,20.87
2018-12-27T21:55:11.657Z,16.53
2018-12-27T22:00:08.103Z,20.47
2018-12-27T22:05:22.957Z,17.03
2018-12-27T22:10:18.489Z,15.80
2018-12-27T22:15:13.930Z,17.90
2018-12-27T22:20:09.447Z,16.57
2018-12-27T22:25:05.297Z,16.17
2018-12-27T22:30:00.742Z,15.47
2018-12-27T22:34:59.908Z,16.60
2018-12-27T22:39:55.387Z,16.33
2018-12-27T22:44:50.922Z,19.77
2018-12-27T22:49:46.419Z,16.73
2018-12-27T22:54:41.916Z,19.17
2018-12-27T22:59:37.413Z,16.30
2018-12-27T23:04:32.955Z,15.90
2018-12-27T23:09:28.436Z,17.17
2018-12-27T23:14:23.911Z,16.37
2018-12-27T23:19:19.378Z,17.53
2018-12-27T23:24:14.851Z,15.67
2018-12-27T23:29:10.338Z,17.40
2018-12-27T23:34:05.843Z,16.50
2018-12-27T23:39:01.322Z,16.80
2018-12-27T23:43:56.856Z,16.43
2018-12-27T23:48:52.351Z,16.23
2018-12-27T23:53:47.834Z,15.47
2018-12-27T23:58:43.342Z,19.17
